Time;durP1;ratioP1;P1;durP2;ratioP2;P2;SDS_P1;SDS_P2;PMS_P1;PMS_P2;Temp;Humidity;BMP_temperature;BMP_pressure;BME280_temperature;BME280_humidity;BME280_pressure;Samples;Min_cycle;Max_cycle;Signal;HPM_P1;HPM_P2
2021/01/21 00:01:30;;;;;;;;;;;10.80;68.70;;;;;;5033659;28;19916;-80
2021/01/21 00:03:56;;;;;;;;;;;10.80;68.80;;;;;;5033238;28;19925;-73
2021/01/21 00:06:21;;;;;;;;;;;10.80;69.10;;;;;;5033113;28;20456;-73
2021/01/21 00:08:47;;;;;;;;;;;10.80;68.80;;;;;;5034893;28;20439;-72
2021/01/21 00:11:12;;;;;;;;;;;10.80;68.80;;;;;;5037200;28;19913;-75
2021/01/21 00:13:38;;;;;;;;;;;10.80;68.90;;;;;;5055276;28;19951;-73
2021/01/21 00:16:04;;;;;;;;;;;10.80;68.80;;;;;;5037707;28;20365;-74
2021/01/21 00:18:29;;;;;;;;;;;10.80;68.80;;;;;;5037690;28;19909;-78
2021/01/21 00:20:55;;;;;;;;;;;10.80;68.60;;;;;;5036821;28;19909;-73
2021/01/21 00:23:20;;;;;;;;;;;10.80;68.50;;;;;;5021113;28;19916;-73
2021/01/21 00:25:46;;;;;;;;;;;10.80;68.60;;;;;;5036937;28;19917;-74
2021/01/21 00:28:13;;;;;;;;;;;10.80;68.30;;;;;;5034090;28;19921;-76
2021/01/21 00:30:38;;;;;;;;;;;10.70;68.40;;;;;;5035053;28;19909;-74
2021/01/21 00:33:04;;;;;;;;;;;10.70;68.40;;;;;;5034650;28;19913;-74
2021/01/21 00:35:29;;;;;;;;;;;10.70;68.40;;;;;;5035447;28;20015;-74
2021/01/21 00:37:55;;;;;;;;;;;10.70;68.30;;;;;;5033617;28;20369;-74
2021/01/21 00:40:20;;;;;;;;;;;10.70;68.20;;;;;;5033641;28;19935;-74
2021/01/21 00:42:46;;;;;;;;;;;10.70;68.30;;;;;;5033472;28;19922;-74
2021/01/21 00:45:11;;;;;;;;;;;10.70;68.00;;;;;;5033313;28;20095;-74
2021/01/21 00:47:37;;;;;;;;;;;10.70;67.60;;;;;;5033491;28;20392;-80
2021/01/21 00:50:03;;;;;;;;;;;10.80;67.40;;;;;;5034638;28;19991;-73
2021/01/21 00:52:28;;;;;;;;;;;10.70;67.30;;;;;;5032929;28;19991;-74
2021/01/21 00:54:54;;;;;;;;;;;10.80;67.30;;;;;;5032911;28;19905;-74
2021/01/21 00:57:19;;;;;;;;;;;10.70;67.20;;;;;;5033911;28;19913;-73
2021/01/21 00:59:45;;;;;;;;;;;10.80;66.70;;;;;;5034270;28;19996;-73
2021/01/21 01:02:10;;;;;;;;;;;10.80;66.60;;;;;;5033810;28;19957;-74
2021/01/21 01:04:36;;;;;;;;;;;10.90;66.60;;;;;;5034152;28;20384;-78
2021/01/21 01:07:01;;;;;;;;;;;10.80;66.50;;;;;;5034422;28;20404;-75
2021/01/21 01:09:28;;;;;;;;;;;10.80;66.30;;;;;;5032586;28;19913;-74
2021/01/21 01:11:54;;;;;;;;;;;10.80;66.30;;;;;;5033816;28;19905;-73
2021/01/21 01:14:19;;;;;;;;;;;10.90;66.10;;;;;;5016825;28;19932;-72
2021/01/21 01:16:45;;;;;;;;;;;10.90;66.30;;;;;;5016014;28;20357;-72
2021/01/21 01:19:10;;;;;;;;;;;10.80;65.90;;;;;;5034324;28;19908;-73
2021/01/21 01:21:36;;;;;;;;;;;10.90;65.70;;;;;;5033315;28;19967;-73
2021/01/21 01:24:01;;;;;;;;;;;10.90;65.70;;;;;;5034192;28;20536;-74
2021/01/21 01:26:27;;;;;;;;;;;11.00;65.70;;;;;;5033037;28;19905;-74
2021/01/21 01:28:52;;;;;;;;;;;10.90;65.60;;;;;;5032180;28;19925;-74
2021/01/21 01:31:18;;;;;;;;;;;11.00;65.70;;;;;;5033377;28;19912;-74
2021/01/21 01:33:44;;;;;;;;;;;11.00;65.60;;;;;;5033223;28;19908;-79
2021/01/21 01:36:09;;;;;;;;;;;11.00;65.70;;;;;;5033582;28;19913;-75
2021/01/21 01:38:35;;;;;;;;;;;11.00;65.60;;;;;;5034585;28;20000;-77
2021/01/21 01:41:00;;;;;;;;;;;11.10;65.40;;;;;;5036108;28;19909;-75
2021/01/21 01:43:26;;;;;;;;;;;11.10;65.00;;;;;;5035044;28;19924;-73
2021/01/21 01:45:51;;;;;;;;;;;11.10;65.00;;;;;;5017769;28;19924;-73
2021/01/21 01:48:17;;;;;;;;;;;11.10;65.00;;;;;;5036349;28;19928;-74
2021/01/21 01:50:43;;;;;;;;;;;11.10;65.00;;;;;;5034461;28;19945;-77
2021/01/21 01:53:08;;;;;;;;;;;11.20;64.80;;;;;;5018274;28;20277;-73
2021/01/21 01:55:34;;;;;;;;;;;11.20;64.80;;;;;;5035008;28;19913;-75
2021/01/21 01:58:01;;;;;;;;;;;11.20;64.80;;;;;;5033570;28;19913;-74
2021/01/21 02:00:26;;;;;;;;;;;11.20;65.00;;;;;;5035390;28;19909;-74
2021/01/21 02:02:52;;;;;;;;;;;11.20;64.80;;;;;;5034350;28;19920;-75
2021/01/21 02:05:18;;;;;;;;;;;11.30;64.50;;;;;;5033466;28;19917;-74
2021/01/21 02:07:44;;;;;;;;;;;11.40;64.10;;;;;;5035463;28;19955;-76
2021/01/21 02:10:11;;;;;;;;;;;11.50;63.80;;;;;;5034123;28;19940;-73
2021/01/21 02:12:43;;;;;;;;;;;11.60;63.80;;;;;;5033326;28;19999;-74
2021/01/21 02:15:27;;;;;;;;;;;11.70;63.40;;;;;;5033528;28;20415;-73
2021/01/21 02:18:00;;;;;;;;;;;11.80;63.20;;;;;;5032013;28;19913;-74
2021/01/21 02:20:29;;;;;;;;;;;11.80;63.40;;;;;;5031876;28;20000;-73
2021/01/21 02:23:13;;;;;;;;;;;11.80;63.30;;;;;;5032496;28;19991;-74
2021/01/21 02:25:58;;;;;;;;;;;11.90;63.20;;;;;;5032641;28;19967;-74
2021/01/21 02:28:27;;;;;;;;;;;11.90;62.90;;;;;;5031644;28;19940;-74
2021/01/21 02:30:55;;;;;;;;;;;12.00;63.10;;;;;;5032826;28;19915;-75
2021/01/21 02:33:39;;;;;;;;;;;12.00;63.00;;;;;;5033853;28;20424;-74
2021/01/21 02:36:06;;;;;;;;;;;12.00;62.80;;;;;;5032407;28;19913;-74
2021/01/21 02:38:32;;;;;;;;;;;12.10;63.00;;;;;;5033704;28;19915;-75
2021/01/21 02:40:59;;;;;;;;;;;12.10;63.30;;;;;;5031462;28;19909;-75
2021/01/21 02:43:24;;;;;;;;;;;12.10;63.60;;;;;;5033036;28;19932;-74
2021/01/21 02:45:50;;;;;;;;;;;12.10;63.40;;;;;;5032903;28;19984;-81
2021/01/21 02:48:15;;;;;;;;;;;12.10;63.70;;;;;;5048168;28;20288;-74
2021/01/21 02:50:41;;;;;;;;;;;12.10;64.30;;;;;;5048151;28;19921;-75
2021/01/21 02:53:07;;;;;;;;;;;12.10;64.00;;;;;;5032307;28;19909;-75
2021/01/21 02:55:41;;;;;;;;;;;12.10;64.20;;;;;;5015142;28;19924;-74
2021/01/21 02:58:07;;;;;;;;;;;12.10;64.30;;;;;;5031373;28;19999;-75
2021/01/21 03:00:36;;;;;;;;;;;12.10;64.60;;;;;;5031849;28;20004;-75
2021/01/21 03:03:02;;;;;;;;;;;12.10;64.00;;;;;;5032162;28;19909;-74
2021/01/21 03:05:29;;;;;;;;;;;12.10;63.90;;;;;;5032812;28;20361;-74
2021/01/21 03:07:54;;;;;;;;;;;12.10;63.70;;;;;;5032531;28;19909;-81
2021/01/21 03:10:20;;;;;;;;;;;12.20;63.70;;;;;;5031405;28;19940;-75
2021/01/21 03:12:53;;;;;;;;;;;12.20;63.60;;;;;;5031775;28;19909;-75
2021/01/21 03:15:20;;;;;;;;;;;12.20;63.50;;;;;;5033036;28;19905;-76
2021/01/21 03:17:45;;;;;;;;;;;12.20;63.80;;;;;;5032463;28;19905;-76
2021/01/21 03:20:11;;;;;;;;;;;12.20;63.80;;;;;;5030750;28;20302;-74
2021/01/21 03:22:37;;;;;;;;;;;12.20;64.70;;;;;;5031281;28;19909;-74
2021/01/21 03:25:02;;;;;;;;;;;12.20;65.40;;;;;;5047438;28;19928;-75
2021/01/21 03:27:28;;;;;;;;;;;12.20;65.50;;;;;;5030624;28;19904;-75
2021/01/21 03:29:54;;;;;;;;;;;12.20;65.50;;;;;;5030750;28;19921;-75
2021/01/21 03:32:19;;;;;;;;;;;12.20;65.20;;;;;;5030676;28;19920;-75
2021/01/21 03:34:46;;;;;;;;;;;12.20;65.00;;;;;;5032073;28;20384;-75
2021/01/21 03:37:11;;;;;;;;;;;12.20;65.20;;;;;;5029642;28;19982;-75
2021/01/21 03:39:37;;;;;;;;;;;12.20;65.10;;;;;;5037015;28;19951;-76
2021/01/21 03:42:02;;;;;;;;;;;12.30;65.00;;;;;;5050308;28;19917;-74
2021/01/21 03:44:28;;;;;;;;;;;12.30;64.90;;;;;;5040732;28;19927;-74
2021/01/21 03:46:53;;;;;;;;;;;12.30;65.40;;;;;;5030734;28;20329;-75
2021/01/21 03:49:19;;;;;;;;;;;12.30;65.50;;;;;;5029223;28;20043;-75
2021/01/21 03:51:44;;;;;;;;;;;12.30;65.40;;;;;;5030469;28;20308;-75
2021/01/21 03:54:10;;;;;;;;;;;12.30;65.80;;;;;;5030096;28;20417;-74
2021/01/21 03:56:35;;;;;;;;;;;12.40;65.60;;;;;;5031642;28;20268;-76
2021/01/21 03:59:01;;;;;;;;;;;12.30;66.10;;;;;;5029761;28;20381;-80
2021/01/21 04:01:26;;;;;;;;;;;12.30;66.20;;;;;;5029790;28;19917;-74
2021/01/21 04:03:52;;;;;;;;;;;12.40;66.10;;;;;;5030068;28;19913;-74
2021/01/21 04:06:18;;;;;;;;;;;12.40;66.20;;;;;;5030412;28;19919;-74
2021/01/21 04:08:43;;;;;;;;;;;12.40;66.10;;;;;;5031349;28;20271;-76
2021/01/21 04:11:09;;;;;;;;;;;12.40;66.30;;;;;;5029445;28;20333;-74
2021/01/21 04:13:34;;;;;;;;;;;12.40;66.40;;;;;;5030387;28;19967;-76
2021/01/21 04:16:00;;;;;;;;;;;12.40;66.60;;;;;;5013124;28;19917;-74
2021/01/21 04:18:25;;;;;;;;;;;12.40;66.90;;;;;;5013177;28;19959;-76
2021/01/21 04:20:51;;;;;;;;;;;12.30;67.00;;;;;;5030140;28;19944;-74
2021/01/21 04:23:16;;;;;;;;;;;12.30;67.40;;;;;;5029791;28;19909;-75
2021/01/21 04:25:42;;;;;;;;;;;12.30;68.80;;;;;;5029492;28;19917;-76
2021/01/21 04:28:07;;;;;;;;;;;12.20;69.30;;;;;;5029648;28;19917;-81
2021/01/21 04:30:33;;;;;;;;;;;12.20;69.70;;;;;;5030298;28;19909;-75
2021/01/21 04:32:58;;;;;;;;;;;12.10;70.40;;;;;;5029761;28;20388;-75
2021/01/21 04:35:24;;;;;;;;;;;12.00;71.40;;;;;;5029691;28;20392;-75
2021/01/21 04:37:49;;;;;;;;;;;11.90;71.90;;;;;;5030132;28;19913;-74
2021/01/21 04:40:15;;;;;;;;;;;11.90;73.10;;;;;;5030286;28;19909;-75
2021/01/21 04:42:41;;;;;;;;;;;11.60;75.50;;;;;;5031723;28;19916;-76
2021/01/21 04:45:07;;;;;;;;;;;11.40;75.60;;;;;;5030945;28;20059;-80
2021/01/21 04:47:33;;;;;;;;;;;10.90;74.60;;;;;;5030984;28;19912;-76
2021/01/21 04:49:59;;;;;;;;;;;10.30;73.90;;;;;;5032682;28;19909;-78
2021/01/21 04:52:25;;;;;;;;;;;9.80;75.30;;;;;;5031497;28;19909;-75
2021/01/21 04:54:56;;;;;;;;;;;9.40;76.40;;;;;;5031115;28;19911;-76
2021/01/21 04:57:28;;;;;;;;;;;9.10;77.40;;;;;;5035151;28;19952;-75
2021/01/21 04:59:54;;;;;;;;;;;8.90;77.70;;;;;;5035604;28;19970;-75
2021/01/21 05:02:20;;;;;;;;;;;8.80;78.40;;;;;;5035182;28;19917;-74
2021/01/21 05:04:45;;;;;;;;;;;8.60;77.80;;;;;;5033973;28;20012;-76
2021/01/21 05:07:12;;;;;;;;;;;8.50;76.70;;;;;;5036441;28;19963;-76
2021/01/21 05:09:37;;;;;;;;;;;8.30;77.10;;;;;;5019442;28;20345;-75
2021/01/21 05:12:03;;;;;;;;;;;8.20;77.60;;;;;;5036856;28;19954;-75
2021/01/21 05:14:29;;;;;;;;;;;8.10;78.10;;;;;;5035307;28;19909;-75
2021/01/21 05:16:54;;;;;;;;;;;8.00;77.90;;;;;;5036048;28;19905;-75
2021/01/21 05:19:20;;;;;;;;;;;8.00;77.70;;;;;;5018355;28;19916;-76
2021/01/21 05:21:45;;;;;;;;;;;7.90;77.30;;;;;;5035290;28;19979;-75
2021/01/21 05:24:11;;;;;;;;;;;7.80;77.20;;;;;;5035020;28;19917;-76
2021/01/21 05:26:44;;;;;;;;;;;7.80;77.70;;;;;;5047493;28;20575;-76
2021/01/21 05:29:10;;;;;;;;;;;7.70;77.30;;;;;;5031421;28;19921;-76
2021/01/21 05:31:36;;;;;;;;;;;7.60;77.40;;;;;;5014277;28;19909;-76
2021/01/21 05:34:04;;;;;;;;;;;7.60;77.70;;;;;;5014495;28;19916;-75
2021/01/21 05:36:35;;;;;;;;;;;7.60;77.50;;;;;;5014221;28;19983;-76
2021/01/21 05:39:03;;;;;;;;;;;7.50;77.30;;;;;;5015101;28;20055;-76
2021/01/21 05:41:29;;;;;;;;;;;7.50;78.00;;;;;;5015801;28;19909;-78
2021/01/21 05:43:54;;;;;;;;;;;7.50;78.40;;;;;;4996291;28;19913;-77
2021/01/21 05:46:20;;;;;;;;;;;7.50;78.20;;;;;;5012826;28;19909;-78
2021/01/21 05:48:45;;;;;;;;;;;7.50;78.50;;;;;;5030923;28;20381;-77
2021/01/21 05:51:12;;;;;;;;;;;7.50;78.80;;;;;;5030644;28;19913;-77
2021/01/21 05:53:39;;;;;;;;;;;7.40;78.70;;;;;;5015181;28;19909;-78
2021/01/21 05:56:07;;;;;;;;;;;7.40;78.90;;;;;;5015552;28;19912;-77
2021/01/21 05:58:34;;;;;;;;;;;7.40;78.90;;;;;;5030463;28;19906;-78
2021/01/21 06:00:59;;;;;;;;;;;7.40;79.20;;;;;;5014464;28;19910;-77
2021/01/21 06:03:26;;;;;;;;;;;7.40;79.10;;;;;;5030791;28;20476;-77
2021/01/21 06:05:52;;;;;;;;;;;7.40;79.20;;;;;;5030503;28;19922;-77
2021/01/21 06:08:21;;;;;;;;;;;7.40;79.40;;;;;;5030586;28;20411;-76
2021/01/21 06:10:47;;;;;;;;;;;7.30;79.60;;;;;;5016111;28;19909;-77
2021/01/21 06:13:14;;;;;;;;;;;7.30;79.90;;;;;;5030948;28;19913;-77
2021/01/21 06:15:40;;;;;;;;;;;7.30;80.20;;;;;;5013712;28;19909;-78
2021/01/21 06:18:06;;;;;;;;;;;7.20;80.40;;;;;;5015009;28;19905;-75
2021/01/21 06:20:31;;;;;;;;;;;7.20;80.90;;;;;;5014714;28;19912;-76
2021/01/21 06:22:59;;;;;;;;;;;7.20;80.90;;;;;;5015027;28;19921;-76
2021/01/21 06:25:25;;;;;;;;;;;7.20;81.00;;;;;;5015116;28;19913;-81
2021/01/21 06:27:51;;;;;;;;;;;7.20;81.20;;;;;;5015329;28;19911;-77
2021/01/21 06:30:18;;;;;;;;;;;7.30;81.10;;;;;;5036989;28;19913;-75
2021/01/21 06:33:03;;;;;;;;;;;7.20;81.00;;;;;;5053741;28;20491;-75
2021/01/21 06:35:33;;;;;;;;;;;7.20;80.80;;;;;;5035883;28;19959;-76
2021/01/21 06:38:06;;;;;;;;;;;7.20;81.10;;;;;;5037015;28;19916;-77
2021/01/21 06:40:32;;;;;;;;;;;7.20;80.90;;;;;;5037088;28;19995;-77
2021/01/21 06:43:04;;;;;;;;;;;7.20;81.00;;;;;;5036781;28;19943;-76
2021/01/21 06:45:31;;;;;;;;;;;7.20;81.00;;;;;;5036581;28;19912;-79
2021/01/21 06:47:57;;;;;;;;;;;7.20;80.80;;;;;;5036703;28;19909;-77
2021/01/21 06:50:26;;;;;;;;;;;7.20;80.90;;;;;;5036258;28;19913;-78
2021/01/21 06:52:52;;;;;;;;;;;7.20;80.70;;;;;;5035484;28;19904;-77
2021/01/21 06:55:17;;;;;;;;;;;7.20;80.70;;;;;;5036335;28;19912;-77
2021/01/21 06:57:43;;;;;;;;;;;7.20;80.70;;;;;;5053852;28;20433;-76
2021/01/21 07:00:10;;;;;;;;;;;7.20;80.60;;;;;;5054567;28;19905;-78
2021/01/21 07:02:43;;;;;;;;;;;7.20;80.80;;;;;;5036209;28;19905;-77
2021/01/21 07:05:11;;;;;;;;;;;7.20;80.70;;;;;;5036411;28;19916;-77
2021/01/21 07:07:52;;;;;;;;;;;7.00;80.90;;;;;;5053484;28;19916;-77
2021/01/21 07:10:30;;;;;;;;;;;7.00;81.20;;;;;;5054134;28;19905;-77
2021/01/21 07:12:57;;;;;;;;;;;7.00;81.30;;;;;;5054814;28;19905;-77
2021/01/21 07:15:29;;;;;;;;;;;6.90;81.20;;;;;;5036411;28;19909;-78
2021/01/21 07:18:00;;;;;;;;;;;6.90;81.40;;;;;;5053798;28;19909;-77
2021/01/21 07:20:25;;;;;;;;;;;6.70;81.30;;;;;;5035644;28;20372;-78
2021/01/21 07:22:57;;;;;;;;;;;6.60;81.70;;;;;;5016292;28;19909;-78
2021/01/21 07:25:26;;;;;;;;;;;6.60;81.90;;;;;;5033477;28;19917;-78
2021/01/21 07:27:53;;;;;;;;;;;6.50;82.30;;;;;;5033124;28;19971;-78
2021/01/21 07:30:23;;;;;;;;;;;6.40;82.30;;;;;;5044966;28;19913;-78
2021/01/21 07:32:49;;;;;;;;;;;6.50;82.30;;;;;;5053164;28;20400;-77
2021/01/21 07:35:35;;;;;;;;;;;6.40;82.30;;;;;;5053397;28;19908;-79
2021/01/21 07:38:01;;;;;;;;;;;6.40;82.30;;;;;;5034832;28;19904;-80
2021/01/21 07:40:49;;;;;;;;;;;6.40;82.40;;;;;;5035808;28;19931;-80
2021/01/21 07:43:15;;;;;;;;;;;6.30;82.40;;;;;;5035835;28;19905;-78
2021/01/21 07:45:41;;;;;;;;;;;6.40;82.50;;;;;;5036060;28;19982;-79
2021/01/21 07:48:23;;;;;;;;;;;6.40;82.50;;;;;;5035827;28;19927;-79
2021/01/21 07:50:49;;;;;;;;;;;6.30;82.90;;;;;;5053642;28;19916;-79
2021/01/21 07:53:18;;;;;;;;;;;6.30;82.70;;;;;;5035847;28;19908;-78
2021/01/21 07:55:46;;;;;;;;;;;6.30;82.70;;;;;;5053443;28;19908;-78
2021/01/21 07:58:18;;;;;;;;;;;6.30;82.60;;;;;;5053932;28;19905;-78
2021/01/21 08:00:45;;;;;;;;;;;6.40;82.60;;;;;;5035632;28;19909;-79
2021/01/21 08:03:10;;;;;;;;;;;6.50;82.80;;;;;;5053862;28;20348;-79
2021/01/21 08:05:36;;;;;;;;;;;6.60;83.30;;;;;;5035752;28;19917;-82
2021/01/21 08:08:03;;;;;;;;;;;6.90;82.70;;;;;;5053274;28;19928;-79
2021/01/21 08:10:33;;;;;;;;;;;7.30;80.90;;;;;;5035764;28;19911;-78
2021/01/21 08:13:03;;;;;;;;;;;7.60;79.90;;;;;;5052269;28;19904;-81
2021/01/21 08:15:29;;;;;;;;;;;7.90;79.10;;;;;;5035813;28;19905;-79
2021/01/21 08:17:55;;;;;;;;;;;8.30;77.30;;;;;;5035709;28;19905;-79
2021/01/21 08:20:22;;;;;;;;;;;8.50;76.20;;;;;;5053649;28;19912;-77
2021/01/21 08:23:01;;;;;;;;;;;8.80;75.30;;;;;;5053471;28;19905;-77
2021/01/21 08:25:46;;;;;;;;;;;9.00;74.80;;;;;;5053072;28;20385;-78
2021/01/21 08:28:19;;;;;;;;;;;9.30;73.40;;;;;;5052636;28;20841;-78
2021/01/21 08:30:45;;;;;;;;;;;9.70;72.50;;;;;;5038051;28;19905;-78
2021/01/21 08:33:13;;;;;;;;;;;9.90;72.10;;;;;;5039387;28;19920;-79
2021/01/21 08:35:52;;;;;;;;;;;10.00;70.30;;;;;;5039137;28;20276;-79
2021/01/21 08:38:19;;;;;;;;;;;9.90;70.90;;;;;;5039712;28;19916;-78
2021/01/21 08:40:45;;;;;;;;;;;9.70;70.20;;;;;;5057336;28;20423;-79
2021/01/21 08:43:11;;;;;;;;;;;9.30;71.00;;;;;;5057238;28;19987;-77
2021/01/21 08:45:37;;;;;;;;;;;9.10;71.90;;;;;;5039451;28;19913;-77
2021/01/21 08:48:02;;;;;;;;;;;9.00;72.70;;;;;;5055115;28;19920;-77
2021/01/21 08:50:35;;;;;;;;;;;8.90;73.30;;;;;;5019241;28;19909;-78
2021/01/21 08:53:05;;;;;;;;;;;8.80;73.50;;;;;;5042063;28;19904;-78
2021/01/21 08:55:35;;;;;;;;;;;8.80;73.10;;;;;;5056021;28;19905;-78
2021/01/21 08:58:01;;;;;;;;;;;8.60;73.70;;;;;;5055561;28;19904;-78
2021/01/21 09:00:28;;;;;;;;;;;8.50;74.40;;;;;;5056679;28;20422;-78
2021/01/21 09:02:53;;;;;;;;;;;8.50;74.60;;;;;;5055578;28;19979;-80
2021/01/21 09:05:19;;;;;;;;;;;8.40;74.90;;;;;;5038068;28;19955;-82
2021/01/21 09:07:44;;;;;;;;;;;8.40;74.60;;;;;;5038323;28;20284;-82
2021/01/21 09:10:11;;;;;;;;;;;8.20;74.80;;;;;;5034679;28;19908;-80
2021/01/21 09:12:37;;;;;;;;;;;8.30;75.30;;;;;;5064368;28;19931;-78
2021/01/21 09:15:12;;;;;;;;;;;8.50;75.70;;;;;;5056125;28;19909;-79
2021/01/21 09:17:38;;;;;;;;;;;8.80;74.60;;;;;;5038421;28;20360;-78
2021/01/21 09:20:18;;;;;;;;;;;9.30;73.60;;;;;;5021653;28;19956;-77
2021/01/21 09:22:44;;;;;;;;;;;9.60;71.40;;;;;;5038836;28;20256;-78
2021/01/21 09:25:10;;;;;;;;;;;10.00;72.60;;;;;;5037891;28;19909;-79
2021/01/21 09:27:36;;;;;;;;;;;10.50;69.60;;;;;;5055629;28;20003;-78
2021/01/21 09:30:06;;;;;;;;;;;10.90;68.30;;;;;;5017735;28;19924;-78
2021/01/21 09:32:32;;;;;;;;;;;11.30;68.00;;;;;;5037767;28;19913;-78
2021/01/21 09:35:00;;;;;;;;;;;11.30;66.60;;;;;;5037921;28;19912;-78
2021/01/21 09:37:26;;;;;;;;;;;11.10;65.20;;;;;;5053815;28;19992;-77
2021/01/21 09:39:52;;;;;;;;;;;11.00;67.30;;;;;;5021052;28;19920;-81
2021/01/21 09:42:18;;;;;;;;;;;11.30;67.10;;;;;;5036128;28;19905;-78
2021/01/21 09:44:44;;;;;;;;;;;11.70;65.80;;;;;;5037407;28;19912;-77
2021/01/21 09:47:09;;;;;;;;;;;12.00;64.50;;;;;;5037248;28;19916;-79
2021/01/21 09:49:35;;;;;;;;;;;12.30;64.70;;;;;;5037942;28;19954;-79
2021/01/21 09:52:00;;;;;;;;;;;12.70;64.60;;;;;;5054314;28;19917;-78
2021/01/21 09:54:26;;;;;;;;;;;12.90;62.70;;;;;;5038131;28;19996;-76
2021/01/21 09:56:52;;;;;;;;;;;12.90;62.40;;;;;;5039038;28;20414;-82
2021/01/21 09:59:21;;;;;;;;;;;12.50;62.50;;;;;;5037382;28;19905;-77
2021/01/21 10:01:47;;;;;;;;;;;11.90;63.60;;;;;;5037733;28;19909;-77
2021/01/21 10:04:13;;;;;;;;;;;11.50;65.00;;;;;;5037074;28;19931;-79
2021/01/21 10:06:38;;;;;;;;;;;11.10;65.30;;;;;;5038396;28;20031;-78
2021/01/21 10:09:04;;;;;;;;;;;10.60;66.00;;;;;;5021545;28;20357;-78
2021/01/21 10:11:29;;;;;;;;;;;10.30;67.30;;;;;;5021057;28;19962;-77
2021/01/21 10:13:55;;;;;;;;;;;10.10;67.60;;;;;;5037376;28;20249;-83
2021/01/21 10:16:21;;;;;;;;;;;10.00;68.70;;;;;;5037450;28;19974;-77
2021/01/21 10:18:46;;;;;;;;;;;9.80;68.50;;;;;;5037235;28;19913;-77
2021/01/21 10:21:12;;;;;;;;;;;9.70;70.20;;;;;;5037378;28;19917;-78
2021/01/21 10:23:37;;;;;;;;;;;9.60;69.70;;;;;;5037275;28;19959;-78
2021/01/21 10:26:03;;;;;;;;;;;9.50;70.10;;;;;;5036452;28;20007;-80
2021/01/21 10:28:28;;;;;;;;;;;9.50;70.30;;;;;;5035929;28;19928;-79
2021/01/21 10:30:54;;;;;;;;;;;9.40;69.50;;;;;;5037038;28;20385;-79
2021/01/21 10:33:19;;;;;;;;;;;9.30;70.20;;;;;;5019828;28;19916;-77
2021/01/21 10:35:45;;;;;;;;;;;9.30;70.90;;;;;;5036974;28;19916;-77
2021/01/21 10:38:10;;;;;;;;;;;9.30;71.00;;;;;;5053842;28;19912;-78
2021/01/21 10:40:36;;;;;;;;;;;9.30;71.40;;;;;;5054189;28;19908;-78
2021/01/21 10:43:01;;;;;;;;;;;9.20;70.50;;;;;;5036396;28;20249;-82
2021/01/21 10:45:27;;;;;;;;;;;9.30;70.60;;;;;;5054082;28;19924;-78
2021/01/21 10:47:52;;;;;;;;;;;9.40;70.60;;;;;;5020728;28;19936;-77
2021/01/21 10:50:18;;;;;;;;;;;9.40;70.40;;;;;;5036999;28;19908;-77
2021/01/21 10:52:44;;;;;;;;;;;9.50;70.70;;;;;;5058582;28;19905;-80
2021/01/21 10:55:10;;;;;;;;;;;9.60;70.70;;;;;;5037936;28;20303;-79
2021/01/21 10:57:35;;;;;;;;;;;9.60;70.80;;;;;;5054245;28;19912;-78
2021/01/21 11:00:01;;;;;;;;;;;9.60;70.90;;;;;;5056520;28;20355;-81
2021/01/21 11:02:26;;;;;;;;;;;9.60;70.50;;;;;;5023612;28;19959;-77
2021/01/21 11:04:52;;;;;;;;;;;9.50;70.50;;;;;;5045234;28;19947;-80
2021/01/21 11:07:17;;;;;;;;;;;9.50;70.70;;;;;;5044816;28;20003;-77
2021/01/21 11:09:43;;;;;;;;;;;9.50;70.60;;;;;;5043890;28;19904;-76
2021/01/21 11:12:08;;;;;;;;;;;9.50;70.40;;;;;;5041298;28;19909;-78
2021/01/21 11:14:35;;;;;;;;;;;9.60;70.80;;;;;;5026315;28;19936;-78
2021/01/21 11:17:01;;;;;;;;;;;9.60;70.00;;;;;;5036962;28;19999;-79
2021/01/21 11:19:26;;;;;;;;;;;9.60;69.30;;;;;;5035657;28;20336;-77
2021/01/21 11:21:52;;;;;;;;;;;9.60;70.30;;;;;;5032651;28;19913;-76
2021/01/21 11:24:18;;;;;;;;;;;9.60;68.50;;;;;;5028181;28;20013;-78
2021/01/21 11:26:44;;;;;;;;;;;9.70;69.20;;;;;;5054602;28;20634;-79
2021/01/21 11:29:09;;;;;;;;;;;9.70;69.70;;;;;;5035238;28;19927;-81
2021/01/21 11:31:35;;;;;;;;;;;9.90;70.20;;;;;;5053660;28;20299;-78
2021/01/21 11:34:00;;;;;;;;;;;10.00;70.30;;;;;;5035546;28;19940;-77
2021/01/21 11:36:26;;;;;;;;;;;10.00;69.10;;;;;;5035442;28;19924;-77
2021/01/21 11:38:51;;;;;;;;;;;9.90;68.70;;;;;;5018781;28;19919;-84
2021/01/21 11:41:17;;;;;;;;;;;9.90;67.90;;;;;;5052211;28;19919;-77
2021/01/21 11:43:42;;;;;;;;;;;9.80;67.90;;;;;;5052864;28;20004;-78
2021/01/21 11:46:08;;;;;;;;;;;9.80;69.20;;;;;;5034644;28;19924;-82
2021/01/21 11:48:33;;;;;;;;;;;9.80;69.20;;;;;;5034610;28;19913;-77
2021/01/21 11:50:59;;;;;;;;;;;9.80;68.50;;;;;;5035231;28;19905;-77
2021/01/21 11:53:24;;;;;;;;;;;9.80;67.90;;;;;;5018627;28;20341;-78
2021/01/21 11:55:50;;;;;;;;;;;9.80;68.10;;;;;;5035699;28;19909;-77
2021/01/21 11:58:15;;;;;;;;;;;9.80;68.50;;;;;;5034592;28;19999;-78
2021/01/21 12:00:41;;;;;;;;;;;9.80;68.50;;;;;;5018258;28;20353;-78
2021/01/21 12:03:06;;;;;;;;;;;9.90;68.30;;;;;;5052381;28;19916;-78
2021/01/21 12:05:32;;;;;;;;;;;9.80;67.90;;;;;;5013900;28;19960;-77
2021/01/21 12:07:57;;;;;;;;;;;9.80;68.70;;;;;;5015425;28;20283;-77
2021/01/21 12:10:23;;;;;;;;;;;9.80;68.40;;;;;;5014784;28;20272;-78
2021/01/21 12:12:49;;;;;;;;;;;9.70;67.30;;;;;;5030770;28;20365;-77
2021/01/21 12:15:16;;;;;;;;;;;9.70;68.00;;;;;;5038136;28;19904;-84
2021/01/21 12:17:42;;;;;;;;;;;9.70;68.90;;;;;;5044411;28;19915;-75
2021/01/21 12:20:07;;;;;;;;;;;9.70;68.50;;;;;;5034449;28;19905;-75
2021/01/21 12:22:33;;;;;;;;;;;9.70;68.80;;;;;;5018159;28;19913;-76
2021/01/21 12:24:58;;;;;;;;;;;9.80;69.20;;;;;;5032581;28;19979;-76
2021/01/21 12:27:24;;;;;;;;;;;9.80;67.70;;;;;;4998198;28;19916;-77
2021/01/21 12:29:49;;;;;;;;;;;9.70;68.80;;;;;;5032249;28;19932;-78
2021/01/21 12:32:15;;;;;;;;;;;9.70;68.70;;;;;;5032165;28;19913;-80
2021/01/21 12:34:40;;;;;;;;;;;9.80;68.70;;;;;;5052268;28;20345;-77
2021/01/21 12:37:06;;;;;;;;;;;9.80;68.60;;;;;;5035053;28;19913;-76
2021/01/21 12:39:31;;;;;;;;;;;9.80;68.60;;;;;;5026917;28;19948;-76
2021/01/21 12:41:57;;;;;;;;;;;9.90;68.30;;;;;;5033839;28;19916;-76
2021/01/21 12:44:22;;;;;;;;;;;9.90;67.40;;;;;;5049670;28;20383;-76
2021/01/21 12:46:48;;;;;;;;;;;9.80;68.20;;;;;;5034392;28;19951;-76
2021/01/21 12:49:13;;;;;;;;;;;9.90;68.50;;;;;;5051300;28;19946;-77
2021/01/21 12:51:39;;;;;;;;;;;9.90;68.90;;;;;;5043483;28;19900;-77
2021/01/21 12:54:05;;;;;;;;;;;9.90;68.00;;;;;;5034900;28;19916;-77
2021/01/21 12:56:30;;;;;;;;;;;9.90;67.40;;;;;;5051878;28;19905;-78
2021/01/21 12:58:56;;;;;;;;;;;9.80;67.70;;;;;;5034634;28;20387;-82
2021/01/21 13:01:21;;;;;;;;;;;9.80;67.80;;;;;;5027612;28;19916;-79
2021/01/21 13:03:47;;;;;;;;;;;9.80;68.30;;;;;;5018479;28;19916;-78
2021/01/21 13:06:12;;;;;;;;;;;9.80;67.80;;;;;;5052646;28;19925;-77
2021/01/21 13:08:38;;;;;;;;;;;9.80;67.80;;;;;;5034282;28;20387;-78
2021/01/21 13:11:04;;;;;;;;;;;9.80;67.90;;;;;;5018555;28;19912;-77
2021/01/21 13:13:32;;;;;;;;;;;9.80;68.20;;;;;;5035005;28;19935;-78
2021/01/21 13:15:58;;;;;;;;;;;9.80;67.80;;;;;;5017121;28;20003;-78
2021/01/21 13:18:23;;;;;;;;;;;9.80;67.50;;;;;;5055618;28;19996;-85
2021/01/21 13:20:49;;;;;;;;;;;9.80;66.70;;;;;;5054887;28;20011;-75
2021/01/21 13:23:15;;;;;;;;;;;9.90;67.70;;;;;;5055326;28;19909;-75
2021/01/21 13:25:40;;;;;;;;;;;10.00;67.50;;;;;;5037494;28;19939;-77
2021/01/21 13:28:06;;;;;;;;;;;10.00;67.70;;;;;;5054971;28;20319;-77
2021/01/21 13:30:31;;;;;;;;;;;9.90;67.40;;;;;;5052481;28;20361;-78
2021/01/21 13:32:57;;;;;;;;;;;9.90;67.00;;;;;;5053437;28;20428;-77
2021/01/21 13:35:22;;;;;;;;;;;9.90;67.20;;;;;;5053173;28;19917;-81
2021/01/21 13:37:48;;;;;;;;;;;9.90;67.60;;;;;;5037199;28;19912;-78
2021/01/21 13:40:13;;;;;;;;;;;9.90;67.50;;;;;;5047339;28;19917;-76
2021/01/21 13:42:39;;;;;;;;;;;9.90;67.90;;;;;;5051028;28;20387;-78
2021/01/21 13:45:05;;;;;;;;;;;10.00;66.20;;;;;;5020802;28;19920;-76
2021/01/21 13:47:30;;;;;;;;;;;9.90;66.40;;;;;;5055067;28;19919;-77
2021/01/21 13:49:56;;;;;;;;;;;9.80;67.40;;;;;;5037829;28;19905;-77
2021/01/21 13:52:21;;;;;;;;;;;9.80;66.80;;;;;;5056064;28;19904;-76
2021/01/21 13:54:47;;;;;;;;;;;9.80;66.60;;;;;;5020882;28;20521;-77
2021/01/21 13:57:13;;;;;;;;;;;9.80;66.70;;;;;;5055356;28;20007;-76
2021/01/21 13:59:38;;;;;;;;;;;9.80;66.90;;;;;;5017046;28;19959;-76
2021/01/21 14:02:04;;;;;;;;;;;9.70;66.30;;;;;;5033698;28;20440;-76
2021/01/21 14:04:30;;;;;;;;;;;9.70;67.20;;;;;;5048571;28;19925;-78
2021/01/21 14:06:55;;;;;;;;;;;9.80;67.10;;;;;;5052316;28;19912;-78
2021/01/21 14:09:21;;;;;;;;;;;9.80;67.50;;;;;;5053379;28;20336;-75
2021/01/21 14:11:46;;;;;;;;;;;9.90;67.40;;;;;;5053800;28;19957;-77
2021/01/21 14:14:14;;;;;;;;;;;10.00;66.20;;;;;;5054733;28;19908;-78
2021/01/21 14:16:39;;;;;;;;;;;10.00;66.50;;;;;;5037436;28;20364;-77
2021/01/21 14:19:05;;;;;;;;;;;10.00;66.50;;;;;;5037295;28;19952;-76
2021/01/21 14:21:31;;;;;;;;;;;10.00;66.60;;;;;;5054543;28;19905;-81